sensor_id;sensor_type;location;lat;lon;timestamp;pressure;altitude;pressure_sealevel;temperature;humidity
49759;BME280;35654;46.080;11.118;2023-01-25T00:00:31;100662.09;;;6.02;71.89
49759;BME280;35654;46.080;11.118;2023-01-25T00:02:57;100666.69;;;6.01;71.67
49759;BME280;35654;46.080;11.118;2023-01-25T00:05:24;100671.09;;;6.02;71.57
49759;BME280;35654;46.080;11.118;2023-01-25T00:07:51;100662.94;;;6.02;71.71
49759;BME280;35654;46.080;11.118;2023-01-25T00:10:16;100656.75;;;5.95;71.61
49759;BME280;35654;46.080;11.118;2023-01-25T00:12:42;100663.50;;;5.93;71.82
49759;BME280;35654;46.080;11.118;2023-01-25T00:15:07;100657.47;;;5.91;71.88
49759;BME280;35654;46.080;11.118;2023-01-25T00:17:34;100662.31;;;5.89;71.46
49759;BME280;35654;46.080;11.118;2023-01-25T00:20:00;100661.09;;;5.84;71.02
49759;BME280;35654;46.080;11.118;2023-01-25T00:22:27;100653.78;;;5.85;71.09
49759;BME280;35654;46.080;11.118;2023-01-25T00:24:54;100656.25;;;5.86;71.36
49759;BME280;35654;46.080;11.118;2023-01-25T00:27:20;100649.78;;;5.88;71.61
49759;BME280;35654;46.080;11.118;2023-01-25T00:29:50;100646.66;;;5.84;71.35
49759;BME280;35654;46.080;11.118;2023-01-25T00:34:49;100641.81;;;5.74;71.64
49759;BME280;35654;46.080;11.118;2023-01-25T00:37:29;100642.94;;;5.67;72.51
49759;BME280;35654;46.080;11.118;2023-01-25T00:40:01;100641.53;;;5.64;72.68
49759;BME280;35654;46.080;11.118;2023-01-25T00:42:27;100642.72;;;5.68;72.24
49759;BME280;35654;46.080;11.118;2023-01-25T00:44:53;100647.25;;;5.74;72.50
49759;BME280;35654;46.080;11.118;2023-01-25T00:47:20;100644.53;;;5.74;72.08
49759;BME280;35654;46.080;11.118;2023-01-25T00:49:47;100646.63;;;5.72;72.10
49759;BME280;35654;46.080;11.118;2023-01-25T00:52:13;100647.13;;;5.69;71.73
49759;BME280;35654;46.080;11.118;2023-01-25T00:54:40;100648.38;;;5.67;72.55
49759;BME280;35654;46.080;11.118;2023-01-25T00:57:08;100642.47;;;5.58;72.70
49759;BME280;35654;46.080;11.118;2023-01-25T00:59:35;100644.03;;;5.66;72.15
49759;BME280;35654;46.080;11.118;2023-01-25T01:02:02;100640.84;;;5.69;71.88
49759;BME280;35654;46.080;11.118;2023-01-25T01:04:29;100653.97;;;5.72;71.38
49759;BME280;35654;46.080;11.118;2023-01-25T01:06:55;100651.84;;;5.74;71.40
49759;BME280;35654;46.080;11.118;2023-01-25T01:09:22;100655.16;;;5.76;71.38
49759;BME280;35654;46.080;11.118;2023-01-25T01:11:50;100663.31;;;5.76;71.41
49759;BME280;35654;46.080;11.118;2023-01-25T01:14:17;100666.41;;;5.79;71.51
49759;BME280;35654;46.080;11.118;2023-01-25T01:16:44;100647.75;;;5.83;71.59
49759;BME280;35654;46.080;11.118;2023-01-25T01:19:11;100642.53;;;5.81;71.46
49759;BME280;35654;46.080;11.118;2023-01-25T01:21:38;100637.91;;;5.82;71.31
49759;BME280;35654;46.080;11.118;2023-01-25T01:24:05;100643.34;;;5.82;71.08
49759;BME280;35654;46.080;11.118;2023-01-25T01:26:32;100644.06;;;5.77;71.44
49759;BME280;35654;46.080;11.118;2023-01-25T01:28:58;100636.97;;;5.76;70.80
49759;BME280;35654;46.080;11.118;2023-01-25T01:31:25;100634.81;;;5.78;70.80
49759;BME280;35654;46.080;11.118;2023-01-25T01:33:53;100627.13;;;5.75;71.03
49759;BME280;35654;46.080;11.118;2023-01-25T01:36:22;100633.41;;;5.76;70.92
49759;BME280;35654;46.080;11.118;2023-01-25T01:38:49;100622.28;;;5.66;70.96
49759;BME280;35654;46.080;11.118;2023-01-25T01:41:16;100624.41;;;5.64;71.38
49759;BME280;35654;46.080;11.118;2023-01-25T01:43:42;100621.00;;;5.68;71.27
49759;BME280;35654;46.080;11.118;2023-01-25T01:46:28;100627.00;;;5.70;71.40
49759;BME280;35654;46.080;11.118;2023-01-25T01:54:50;100616.16;;;5.70;71.24
49759;BME280;35654;46.080;11.118;2023-01-25T01:57:31;100609.97;;;5.52;72.13
49759;BME280;35654;46.080;11.118;2023-01-25T02:02:32;100610.53;;;5.54;72.11
49759;BME280;35654;46.080;11.118;2023-01-25T02:05:00;100620.94;;;5.57;72.00
49759;BME280;35654;46.080;11.118;2023-01-25T02:07:32;100612.69;;;5.52;71.60
49759;BME280;35654;46.080;11.118;2023-01-25T02:09:59;100611.59;;;5.41;72.32
49759;BME280;35654;46.080;11.118;2023-01-25T02:12:27;100609.22;;;5.45;72.20
49759;BME280;35654;46.080;11.118;2023-01-25T02:14:54;100607.13;;;5.47;71.84
49759;BME280;35654;46.080;11.118;2023-01-25T02:17:23;100593.28;;;5.48;72.05
49759;BME280;35654;46.080;11.118;2023-01-25T02:24:06;100602.22;;;5.37;72.23
49759;BME280;35654;46.080;11.118;2023-01-25T02:26:04;100597.97;;;5.29;72.37
49759;BME280;35654;46.080;11.118;2023-01-25T02:28:49;100595.47;;;5.28;72.27
49759;BME280;35654;46.080;11.118;2023-01-25T02:31:17;100592.03;;;5.21;72.40
49759;BME280;35654;46.080;11.118;2023-01-25T02:33:44;100573.72;;;5.16;72.96
49759;BME280;35654;46.080;11.118;2023-01-25T02:36:28;100574.06;;;5.20;72.78
49759;BME280;35654;46.080;11.118;2023-01-25T02:39:14;100577.16;;;5.23;73.20
49759;BME280;35654;46.080;11.118;2023-01-25T02:41:45;100576.69;;;5.26;73.28
49759;BME280;35654;46.080;11.118;2023-01-25T02:44:24;100578.38;;;5.27;73.27
49759;BME280;35654;46.080;11.118;2023-01-25T02:46:52;100578.56;;;5.26;73.30
49759;BME280;35654;46.080;11.118;2023-01-25T02:49:19;100579.41;;;5.26;73.52
49759;BME280;35654;46.080;11.118;2023-01-25T02:51:49;100581.53;;;5.24;73.25
49759;BME280;35654;46.080;11.118;2023-01-25T02:54:18;100575.16;;;5.19;73.79
49759;BME280;35654;46.080;11.118;2023-01-25T02:56:44;100568.50;;;5.15;73.76
49759;BME280;35654;46.080;11.118;2023-01-25T02:59:11;100563.94;;;4.97;74.44
49759;BME280;35654;46.080;11.118;2023-01-25T03:01:40;100568.19;;;4.93;74.31
49759;BME280;35654;46.080;11.118;2023-01-25T03:04:08;100552.88;;;4.99;74.41
49759;BME280;35654;46.080;11.118;2023-01-25T03:06:36;100549.69;;;5.02;73.78
49759;BME280;35654;46.080;11.118;2023-01-25T03:09:04;100551.56;;;5.01;74.15
49759;BME280;35654;46.080;11.118;2023-01-25T03:11:31;100561.59;;;5.01;74.10
49759;BME280;35654;46.080;11.118;2023-01-25T03:13:57;100555.78;;;4.97;74.51
49759;BME280;35654;46.080;11.118;2023-01-25T03:16:24;100560.03;;;4.93;74.58
49759;BME280;35654;46.080;11.118;2023-01-25T03:18:54;100567.22;;;4.88;74.97
49759;BME280;35654;46.080;11.118;2023-01-25T03:21:22;100553.25;;;4.84;75.27
49759;BME280;35654;46.080;11.118;2023-01-25T03:23:54;100557.28;;;4.82;75.73
49759;BME280;35654;46.080;11.118;2023-01-25T03:26:23;100546.72;;;4.74;76.25
49759;BME280;35654;46.080;11.118;2023-01-25T03:28:50;100545.75;;;4.68;76.03
49759;BME280;35654;46.080;11.118;2023-01-25T03:31:17;100541.25;;;4.62;76.22
49759;BME280;35654;46.080;11.118;2023-01-25T03:33:45;100541.00;;;4.63;76.20
49759;BME280;35654;46.080;11.118;2023-01-25T03:36:12;100553.31;;;4.66;76.11
49759;BME280;35654;46.080;11.118;2023-01-25T03:38:38;100556.22;;;4.64;76.48
49759;BME280;35654;46.080;11.118;2023-01-25T03:41:05;100556.28;;;4.58;76.49
49759;BME280;35654;46.080;11.118;2023-01-25T03:43:33;100548.78;;;4.60;76.30
49759;BME280;35654;46.080;11.118;2023-01-25T03:46:01;100548.53;;;4.61;76.07
49759;BME280;35654;46.080;11.118;2023-01-25T03:48:28;100547.94;;;4.59;76.23
49759;BME280;35654;46.080;11.118;2023-01-25T03:50:57;100553.81;;;4.56;76.28
49759;BME280;35654;46.080;11.118;2023-01-25T03:53:26;100543.50;;;4.47;76.97
49759;BME280;35654;46.080;11.118;2023-01-25T03:56:09;100545.63;;;4.45;76.70
49759;BME280;35654;46.080;11.118;2023-01-25T03:58:37;100545.22;;;4.41;76.75
49759;BME280;35654;46.080;11.118;2023-01-25T04:01:05;100545.47;;;4.40;77.27
49759;BME280;35654;46.080;11.118;2023-01-25T04:03:33;100539.22;;;4.39;77.13
49759;BME280;35654;46.080;11.118;2023-01-25T04:05:59;100541.34;;;4.37;77.52
49759;BME280;35654;46.080;11.118;2023-01-25T04:08:26;100548.19;;;4.40;77.42
49759;BME280;35654;46.080;11.118;2023-01-25T04:11:10;100543.34;;;4.42;77.02
49759;BME280;35654;46.080;11.118;2023-01-25T04:13:38;100540.63;;;4.42;77.04
49759;BME280;35654;46.080;11.118;2023-01-25T04:16:06;100530.56;;;4.31;77.25
49759;BME280;35654;46.080;11.118;2023-01-25T04:18:33;100534.78;;;4.27;77.47
49759;BME280;35654;46.080;11.118;2023-01-25T04:20:58;100534.53;;;4.28;77.59
49759;BME280;35654;46.080;11.118;2023-01-25T04:23:25;100521.00;;;4.28;77.57
49759;BME280;35654;46.080;11.118;2023-01-25T04:26:00;100529.38;;;4.27;77.74
49759;BME280;35654;46.080;11.118;2023-01-25T04:28:27;100533.34;;;4.24;77.79
49759;BME280;35654;46.080;11.118;2023-01-25T04:30:54;100526.13;;;4.18;78.31
49759;BME280;35654;46.080;11.118;2023-01-25T04:33:22;100524.59;;;4.22;77.72
49759;BME280;35654;46.080;11.118;2023-01-25T04:35:49;100511.03;;;4.22;78.08
49759;BME280;35654;46.080;11.118;2023-01-25T04:38:16;100513.53;;;4.24;78.37
49759;BME280;35654;46.080;11.118;2023-01-25T04:40:43;100515.41;;;4.23;78.35
49759;BME280;35654;46.080;11.118;2023-01-25T04:43:11;100520.47;;;4.20;78.34
49759;BME280;35654;46.080;11.118;2023-01-25T04:45:38;100518.44;;;4.15;78.52
49759;BME280;35654;46.080;11.118;2023-01-25T04:48:07;100521.53;;;4.19;79.09
49759;BME280;35654;46.080;11.118;2023-01-25T04:50:37;100523.75;;;4.22;78.27
49759;BME280;35654;46.080;11.118;2023-01-25T04:53:05;100523.75;;;4.22;78.02
49759;BME280;35654;46.080;11.118;2023-01-25T04:55:33;100521.75;;;4.17;78.42
49759;BME280;35654;46.080;11.118;2023-01-25T04:58:01;100518.44;;;4.15;79.03
49759;BME280;35654;46.080;11.118;2023-01-25T05:00:28;100523.25;;;4.13;78.70
49759;BME280;35654;46.080;11.118;2023-01-25T05:02:55;100522.88;;;4.09;79.09
49759;BME280;35654;46.080;11.118;2023-01-25T05:05:22;100530.56;;;4.13;79.54
49759;BME280;35654;46.080;11.118;2023-01-25T05:07:49;100522.56;;;4.18;79.13
49759;BME280;35654;46.080;11.118;2023-01-25T05:10:15;100518.19;;;4.17;78.70
49759;BME280;35654;46.080;11.118;2023-01-25T05:12:42;100518.44;;;4.15;78.79
49759;BME280;35654;46.080;11.118;2023-01-25T05:15:10;100521.59;;;4.12;78.97
49759;BME280;35654;46.080;11.118;2023-01-25T05:17:37;100529.94;;;4.10;79.08
49759;BME280;35654;46.080;11.118;2023-01-25T05:20:04;100529.56;;;4.07;79.25
49759;BME280;35654;46.080;11.118;2023-01-25T05:22:32;100530.41;;;4.07;79.17
49759;BME280;35654;46.080;11.118;2023-01-25T05:24:58;100524.75;;;4.09;78.97
49759;BME280;35654;46.080;11.118;2023-01-25T05:27:27;100522.78;;;4.16;78.77
49759;BME280;35654;46.080;11.118;2023-01-25T05:29:55;100531.75;;;4.17;78.75
49759;BME280;35654;46.080;11.118;2023-01-25T05:32:22;100529.88;;;4.17;78.95
49759;BME280;35654;46.080;11.118;2023-01-25T05:34:48;100517.16;;;4.18;78.53
49759;BME280;35654;46.080;11.118;2023-01-25T05:37:17;100516.31;;;4.17;78.55
49759;BME280;35654;46.080;11.118;2023-01-25T05:39:44;100511.50;;;4.19;78.41
49759;BME280;35654;46.080;11.118;2023-01-25T05:42:15;100519.16;;;4.22;78.33
49759;BME280;35654;46.080;11.118;2023-01-25T05:44:43;100519.56;;;4.26;78.12
49759;BME280;35654;46.080;11.118;2023-01-25T05:47:15;100515.81;;;4.27;78.16
49759;BME280;35654;46.080;11.118;2023-01-25T05:49:42;100513.69;;;4.29;78.35
49759;BME280;35654;46.080;11.118;2023-01-25T05:52:16;100522.66;;;4.29;78.08
49759;BME280;35654;46.080;11.118;2023-01-25T05:54:42;100516.41;;;4.29;78.08
49759;BME280;35654;46.080;11.118;2023-01-25T05:57:09;100526.19;;;4.30;78.31
49759;BME280;35654;46.080;11.118;2023-01-25T05:59:36;100533.13;;;4.26;78.10
49759;BME280;35654;46.080;11.118;2023-01-25T06:02:02;100526.66;;;4.27;78.60
49759;BME280;35654;46.080;11.118;2023-01-25T06:04:29;100521.00;;;4.28;78.72
49759;BME280;35654;46.080;11.118;2023-01-25T06:06:55;100519.31;;;4.27;78.47
49759;BME280;35654;46.080;11.118;2023-01-25T06:09:21;100518.72;;;4.25;78.43
49759;BME280;35654;46.080;11.118;2023-01-25T06:11:47;100513.53;;;4.24;78.67
49759;BME280;35654;46.080;11.118;2023-01-25T06:14:14;100520.41;;;4.26;78.75
49759;BME280;35654;46.080;11.118;2023-01-25T06:16:39;100521.44;;;4.25;78.80
49759;BME280;35654;46.080;11.118;2023-01-25T06:19:06;100514.81;;;4.21;79.01
49759;BME280;35654;46.080;11.118;2023-01-25T06:21:34;100512.72;;;4.23;78.88
49759;BME280;35654;46.080;11.118;2023-01-25T06:24:03;100508.72;;;4.26;78.76
49759;BME280;35654;46.080;11.118;2023-01-25T06:26:31;100498.13;;;4.24;78.34
49759;BME280;35654;46.080;11.118;2023-01-25T06:28:58;100497.28;;;4.24;78.02
49759;BME280;35654;46.080;11.118;2023-01-25T06:31:25;100508.72;;;4.26;78.46
49759;BME280;35654;46.080;11.118;2023-01-25T06:33:50;100505.56;;;4.29;77.79
49759;BME280;35654;46.080;11.118;2023-01-25T06:36:18;100503.88;;;4.46;78.60
49759;BME280;35654;46.080;11.118;2023-01-25T06:38:50;100489.34;;;4.40;77.16
49759;BME280;35654;46.080;11.118;2023-01-25T06:41:16;100499.13;;;4.89;81.53
49759;BME280;35654;46.080;11.118;2023-01-25T06:43:42;100495.13;;;5.33;80.43
49759;BME280;35654;46.080;11.118;2023-01-25T06:46:08;100493.16;;;5.63;76.63
49759;BME280;35654;46.080;11.118;2023-01-25T06:48:36;100479.69;;;5.80;76.25
49759;BME280;35654;46.080;11.118;2023-01-25T06:51:04;100490.59;;;5.92;72.49
49759;BME280;35654;46.080;11.118;2023-01-25T06:53:31;100491.84;;;6.24;73.31
49759;BME280;35654;46.080;11.118;2023-01-25T06:56:06;100483.25;;;6.04;70.33
49759;BME280;35654;46.080;11.118;2023-01-25T06:58:32;100482.31;;;5.86;70.80
49759;BME280;35654;46.080;11.118;2023-01-25T07:01:06;100481.81;;;5.55;70.47
49759;BME280;35654;46.080;11.118;2023-01-25T07:03:32;100489.19;;;5.13;72.06
49759;BME280;35654;46.080;11.118;2023-01-25T07:06:02;100489.69;;;4.92;73.31
49759;BME280;35654;46.080;11.118;2023-01-25T07:08:29;100488.84;;;4.80;74.51
49759;BME280;35654;46.080;11.118;2023-01-25T07:11:00;100484.50;;;4.60;74.85
49759;BME280;35654;46.080;11.118;2023-01-25T07:13:27;100477.81;;;4.63;76.02
49759;BME280;35654;46.080;11.118;2023-01-25T07:15:58;100485.22;;;4.86;76.85
49759;BME280;35654;46.080;11.118;2023-01-25T07:18:25;100475.03;;;4.81;75.47
49759;BME280;35654;46.080;11.118;2023-01-25T07:20:51;100467.97;;;4.92;75.07
49759;BME280;35654;46.080;11.118;2023-01-25T07:23:18;100472.34;;;4.93;74.58
49759;BME280;35654;46.080;11.118;2023-01-25T07:25:49;100468.94;;;4.86;74.52
49759;BME280;35654;46.080;11.118;2023-01-25T07:28:16;100472.09;;;4.83;74.86
49759;BME280;35654;46.080;11.118;2023-01-25T07:30:42;100463.22;;;4.76;75.47
49759;BME280;35654;46.080;11.118;2023-01-25T07:33:10;100473.22;;;4.75;75.18
49759;BME280;35654;46.080;11.118;2023-01-25T07:35:36;100469.00;;;4.79;75.11
49759;BME280;35654;46.080;11.118;2023-01-25T07:38:02;100465.25;;;4.80;75.35
49759;BME280;35654;46.080;11.118;2023-01-25T07:40:28;100454.16;;;4.82;74.96
49759;BME280;35654;46.080;11.118;2023-01-25T07:42:53;100452.66;;;4.86;74.70
49759;BME280;35654;46.080;11.118;2023-01-25T07:45:19;100452.03;;;4.84;74.35
49759;BME280;35654;46.080;11.118;2023-01-25T07:47:44;100435.75;;;4.84;74.54
49759;BME280;35654;46.080;11.118;2023-01-25T07:50:10;100436.56;;;4.84;74.52
49759;BME280;35654;46.080;11.118;2023-01-25T07:52:36;100435.88;;;4.77;74.53
49759;BME280;35654;46.080;11.118;2023-01-25T07:55:03;100440.13;;;4.85;74.65
49759;BME280;35654;46.080;11.118;2023-01-25T07:57:28;100440.34;;;4.83;74.85
49759;BME280;35654;46.080;11.118;2023-01-25T07:59:53;100437.31;;;4.91;74.48
49759;BME280;35654;46.080;11.118;2023-01-25T08:02:19;100440.03;;;5.03;74.39
49759;BME280;35654;46.080;11.118;2023-01-25T08:04:45;100436.66;;;5.07;73.98
49759;BME280;35654;46.080;11.118;2023-01-25T08:07:11;100441.81;;;5.09;74.00
49759;BME280;35654;46.080;11.118;2023-01-25T08:09:37;100446.09;;;5.05;73.76
49759;BME280;35654;46.080;11.118;2023-01-25T08:12:03;100451.53;;;5.16;73.84
49759;BME280;35654;46.080;11.118;2023-01-25T08:14:29;100450.47;;;5.29;73.10
49759;BME280;35654;46.080;11.118;2023-01-25T08:16:54;100433.59;;;5.62;71.69
49759;BME280;35654;46.080;11.118;2023-01-25T08:19:19;100426.50;;;5.84;70.54
49759;BME280;35654;46.080;11.118;2023-01-25T08:21:46;100431.94;;;6.07;69.19
49759;BME280;35654;46.080;11.118;2023-01-25T08:24:12;100432.38;;;6.27;68.15
49759;BME280;35654;46.080;11.118;2023-01-25T08:26:37;100435.38;;;6.42;66.47
49759;BME280;35654;46.080;11.118;2023-01-25T08:29:04;100435.59;;;6.53;66.52
49759;BME280;35654;46.080;11.118;2023-01-25T08:31:31;100438.44;;;6.74;65.90
49759;BME280;35654;46.080;11.118;2023-01-25T08:33:58;100439.53;;;6.90;65.55
49759;BME280;35654;46.080;11.118;2023-01-25T08:36:24;100437.50;;;6.97;64.58
49759;BME280;35654;46.080;11.118;2023-01-25T08:38:56;100437.25;;;6.98;64.16
49759;BME280;35654;46.080;11.118;2023-01-25T08:41:22;100432.41;;;7.17;63.74
49759;BME280;35654;46.080;11.118;2023-01-25T08:43:50;100427.28;;;7.37;62.47
49759;BME280;35654;46.080;11.118;2023-01-25T08:46:16;100428.69;;;7.40;61.98
49759;BME280;35654;46.080;11.118;2023-01-25T08:48:41;100431.72;;;7.60;60.91
49759;BME280;35654;46.080;11.118;2023-01-25T08:51:08;100428.25;;;7.81;61.24
49759;BME280;35654;46.080;11.118;2023-01-25T08:53:37;100424.56;;;7.92;59.92
49759;BME280;35654;46.080;11.118;2023-01-25T08:56:03;100421.91;;;7.97;59.27
49759;BME280;35654;46.080;11.118;2023-01-25T08:58:29;100419.31;;;8.07;58.88
49759;BME280;35654;46.080;11.118;2023-01-25T09:00:59;100420.06;;;8.03;58.80
49759;BME280;35654;46.080;11.118;2023-01-25T09:03:25;100416.38;;;8.31;58.23
49759;BME280;35654;46.080;11.118;2023-01-25T09:05:52;100414.63;;;8.46;57.47
49759;BME280;35654;46.080;11.118;2023-01-25T09:08:18;100418.41;;;8.67;56.62
49759;BME280;35654;46.080;11.118;2023-01-25T09:10:43;100404.22;;;8.65;56.09
49759;BME280;35654;46.080;11.118;2023-01-25T09:13:09;100408.34;;;8.67;56.00
49759;BME280;35654;46.080;11.118;2023-01-25T09:15:34;100411.72;;;8.79;55.91
49759;BME280;35654;46.080;11.118;2023-01-25T09:18:01;100403.09;;;8.88;55.13
49759;BME280;35654;46.080;11.118;2023-01-25T09:20:28;100403.50;;;8.79;55.49
49759;BME280;35654;46.080;11.118;2023-01-25T09:22:54;100402.50;;;8.86;55.08
49759;BME280;35654;46.080;11.118;2023-01-25T09:25:19;100398.53;;;8.71;55.43
49759;BME280;35654;46.080;11.118;2023-01-25T09:27:48;100391.16;;;8.72;54.74
49759;BME280;35654;46.080;11.118;2023-01-25T09:30:14;100392.19;;;8.66;55.14
49759;BME280;35654;46.080;11.118;2023-01-25T09:32:40;100388.53;;;8.55;54.80
49759;BME280;35654;46.080;11.118;2023-01-25T09:35:05;100381.06;;;8.72;55.13
49759;BME280;35654;46.080;11.118;2023-01-25T09:37:31;100371.03;;;8.78;55.33
49759;BME280;35654;46.080;11.118;2023-01-25T09:39:56;100374.34;;;8.85;55.31
49759;BME280;35654;46.080;11.118;2023-01-25T09:45:19;100365.00;;;8.49;55.96
49759;BME280;35654;46.080;11.118;2023-01-25T09:50:31;100356.34;;;8.31;55.76
49759;BME280;35654;46.080;11.118;2023-01-25T09:53:15;100352.22;;;8.55;55.57
49759;BME280;35654;46.080;11.118;2023-01-25T09:55:49;100348.00;;;8.69;54.58
49759;BME280;35654;46.080;11.118;2023-01-25T09:58:20;100345.97;;;8.86;53.79
49759;BME280;35654;46.080;11.118;2023-01-25T10:00:49;100353.19;;;9.02;53.18
49759;BME280;35654;46.080;11.118;2023-01-25T10:03:24;100343.38;;;9.01;53.64
49759;BME280;35654;46.080;11.118;2023-01-25T10:05:57;100348.69;;;9.18;52.88
49759;BME280;35654;46.080;11.118;2023-01-25T10:08:54;100334.34;;;9.38;52.42
49759;BME280;35654;46.080;11.118;2023-01-25T10:11:31;100343.66;;;9.42;52.35
49759;BME280;35654;46.080;11.118;2023-01-25T10:14:00;100341.44;;;9.38;51.75
49759;BME280;35654;46.080;11.118;2023-01-25T10:22:00;100327.84;;;9.49;50.80
49759;BME280;35654;46.080;11.118;2023-01-25T10:24:33;100307.59;;;9.45;50.57
49759;BME280;35654;46.080;11.118;2023-01-25T10:29:51;100307.75;;;9.75;50.46
49759;BME280;35654;46.080;11.118;2023-01-25T10:32:28;100301.94;;;10.33;49.20
49759;BME280;35654;46.080;11.118;2023-01-25T10:35:13;100297.03;;;13.56;42.04
49759;BME280;35654;46.080;11.118;2023-01-25T10:37:39;100293.16;;;16.74;35.78
49759;BME280;35654;46.080;11.118;2023-01-25T10:40:14;100280.66;;;19.54;30.90
49759;BME280;35654;46.080;11.118;2023-01-25T10:42:53;100276.81;;;20.97;28.42
49759;BME280;35654;46.080;11.118;2023-01-25T10:45:19;100279.47;;;20.31;28.86
49759;BME280;35654;46.080;11.118;2023-01-25T10:47:50;100274.00;;;19.85;30.17
49759;BME280;35654;46.080;11.118;2023-01-25T10:53:04;100270.44;;;20.05;28.68
49759;BME280;35654;46.080;11.118;2023-01-25T10:55:29;100280.56;;;20.80;28.07
49759;BME280;35654;46.080;11.118;2023-01-25T10:57:56;100271.38;;;21.33;27.17
49759;BME280;35654;46.080;11.118;2023-01-25T11:00:35;100260.41;;;21.48;26.91
49759;BME280;35654;46.080;11.118;2023-01-25T11:03:02;100254.63;;;22.14;26.29
49759;BME280;35654;46.080;11.118;2023-01-25T11:05:34;100242.09;;;23.15;24.80
49759;BME280;35654;46.080;11.118;2023-01-25T11:10:47;100226.38;;;22.68;25.32
49759;BME280;35654;46.080;11.118;2023-01-25T11:15:50;100226.03;;;22.69;24.78
49759;BME280;35654;46.080;11.118;2023-01-25T11:18:28;100221.88;;;22.51;24.61
49759;BME280;35654;46.080;11.118;2023-01-25T11:21:21;100203.44;;;22.74;25.01
49759;BME280;35654;46.080;11.118;2023-01-25T11:26:32;100198.44;;;23.54;23.56
49759;BME280;35654;46.080;11.118;2023-01-25T11:29:24;100189.75;;;22.17;25.29
49759;BME280;35654;46.080;11.118;2023-01-25T11:31:54;100185.13;;;23.48;23.23
49759;BME280;35654;46.080;11.118;2023-01-25T11:34:27;100181.34;;;22.97;24.43
49759;BME280;35654;46.080;11.118;2023-01-25T11:37:33;100180.97;;;23.42;23.27
49759;BME280;35654;46.080;11.118;2023-01-25T11:40:11;100165.41;;;22.97;23.90
49759;BME280;35654;46.080;11.118;2023-01-25T11:51:28;100137.09;;;23.14;23.83
49759;BME280;35654;46.080;11.118;2023-01-25T11:57:05;100118.16;;;25.50;21.29
49759;BME280;35654;46.080;11.118;2023-01-25T12:11:05;100080.41;;;24.34;22.29
49759;BME280;35654;46.080;11.118;2023-01-25T12:22:24;100030.91;;;23.81;22.51
49759;BME280;35654;46.080;11.118;2023-01-25T12:25:06;100020.19;;;25.64;21.01
49759;BME280;35654;46.080;11.118;2023-01-25T12:28:06;100022.38;;;24.12;22.56
49759;BME280;35654;46.080;11.118;2023-01-25T12:33:24;99995.94;;;22.86;23.48
49759;BME280;35654;46.080;11.118;2023-01-25T12:36:11;99985.53;;;24.97;21.73
49759;BME280;35654;46.080;11.118;2023-01-25T12:38:43;99984.81;;;26.56;20.06
49759;BME280;35654;46.080;11.118;2023-01-25T12:41:45;99977.75;;;26.76;19.45
49759;BME280;35654;46.080;11.118;2023-01-25T12:44:46;99971.88;;;26.88;19.40
49759;BME280;35654;46.080;11.118;2023-01-25T12:49:56;99957.13;;;26.54;19.96
49759;BME280;35654;46.080;11.118;2023-01-25T12:52:36;99962.56;;;24.65;21.83
49759;BME280;35654;46.080;11.118;2023-01-25T12:55:10;99951.63;;;26.28;20.59
49759;BME280;35654;46.080;11.118;2023-01-25T13:00:54;99947.53;;;25.85;20.67
49759;BME280;35654;46.080;11.118;2023-01-25T13:06:43;99935.09;;;25.23;21.10
49759;BME280;35654;46.080;11.118;2023-01-25T13:09:43;99917.25;;;25.65;20.70
49759;BME280;35654;46.080;11.118;2023-01-25T13:12:14;99925.19;;;26.29;19.97
49759;BME280;35654;46.080;11.118;2023-01-25T13:14:41;99917.03;;;26.57;20.15
49759;BME280;35654;46.080;11.118;2023-01-25T13:17:28;99909.81;;;25.83;20.66
49759;BME280;35654;46.080;11.118;2023-01-25T13:19:58;99912.69;;;25.23;21.29
49759;BME280;35654;46.080;11.118;2023-01-25T13:27:43;99901.38;;;22.69;23.83
49759;BME280;35654;46.080;11.118;2023-01-25T13:32:56;99901.41;;;22.22;24.40
49759;BME280;35654;46.080;11.118;2023-01-25T13:35:40;99889.25;;;22.30;24.42
49759;BME280;35654;46.080;11.118;2023-01-25T13:41:21;99894.28;;;22.55;24.06
49759;BME280;35654;46.080;11.118;2023-01-25T13:43:51;99890.47;;;22.79;24.12
49759;BME280;35654;46.080;11.118;2023-01-25T13:46:27;99885.81;;;22.52;23.94
49759;BME280;35654;46.080;11.118;2023-01-25T13:49:00;99887.97;;;21.96;24.57
49759;BME280;35654;46.080;11.118;2023-01-25T13:51:32;99887.97;;;22.74;23.50
49759;BME280;35654;46.080;11.118;2023-01-25T13:54:01;99886.59;;;21.90;24.76
49759;BME280;35654;46.080;11.118;2023-01-25T13:56:31;99885.28;;;21.72;25.29
49759;BME280;35654;46.080;11.118;2023-01-25T13:58:58;99887.06;;;21.36;25.79
49759;BME280;35654;46.080;11.118;2023-01-25T14:01:27;99883.69;;;23.15;23.96
49759;BME280;35654;46.080;11.118;2023-01-25T14:03:58;99885.31;;;23.16;23.81
49759;BME280;35654;46.080;11.118;2023-01-25T14:06:32;99875.63;;;21.26;25.64
49759;BME280;35654;46.080;11.118;2023-01-25T14:09:02;99882.91;;;21.30;25.68
49759;BME280;35654;46.080;11.118;2023-01-25T14:11:35;99876.47;;;21.14;26.29
49759;BME280;35654;46.080;11.118;2023-01-25T14:14:30;99878.31;;;20.46;27.07
49759;BME280;35654;46.080;11.118;2023-01-25T14:17:18;99882.41;;;21.68;25.63
49759;BME280;35654;46.080;11.118;2023-01-25T14:19:52;99885.97;;;18.18;29.23
49759;BME280;35654;46.080;11.118;2023-01-25T14:22:30;99870.66;;;17.66;30.95
49759;BME280;35654;46.080;11.118;2023-01-25T14:25:20;99878.97;;;17.14;31.70
49759;BME280;35654;46.080;11.118;2023-01-25T14:28:05;99883.38;;;15.85;34.00
49759;BME280;35654;46.080;11.118;2023-01-25T14:30:34;99885.03;;;14.84;35.60
49759;BME280;35654;46.080;11.118;2023-01-25T14:35:44;99888.44;;;12.83;44.17
49759;BME280;35654;46.080;11.118;2023-01-25T14:38:31;99886.31;;;12.38;44.88
49759;BME280;35654;46.080;11.118;2023-01-25T14:43:53;99878.03;;;11.67;50.22